Time;durP1;ratioP1;P1;durP2;ratioP2;P2;SDS_P1;SDS_P2;PMS_P1;PMS_P2;Temp;Humidity;BMP_temperature;BMP_pressure;BME280_temperature;BME280_humidity;BME280_pressure;Samples;Min_cycle;Max_cycle;Signal;HPM_P1;HPM_P2
2023/06/06 00:01:40;;;;;;;11.85;5.20;;;11.40;99.90;;;;;;5120615;28;20047;-59
2023/06/06 00:04:06;;;;;;;11.75;4.85;;;11.50;99.90;;;;;;5120484;28;20059;-60
2023/06/06 00:06:33;;;;;;;9.85;5.82;;;11.50;99.90;;;;;;5120867;28;20047;-59
2023/06/06 00:08:59;;;;;;;12.05;5.53;;;11.50;99.90;;;;;;5120438;28;20052;-60
2023/06/06 00:11:28;;;;;;;12.52;5.20;;;11.40;99.90;;;;;;5119808;28;20052;-60
2023/06/06 00:13:56;;;;;;;11.77;5.38;;;11.30;99.90;;;;;;5120589;28;20445;-60
2023/06/06 00:16:23;;;;;;;10.32;5.32;;;11.30;99.90;;;;;;5120785;28;20048;-60
2023/06/06 00:18:52;;;;;;;10.93;5.40;;;11.30;99.90;;;;;;5120527;28;20371;-60
2023/06/06 00:21:21;;;;;;;12.82;5.90;;;11.10;99.90;;;;;;5120473;28;20039;-59
2023/06/06 00:23:47;;;;;;;11.57;6.15;;;11.30;99.90;;;;;;5119185;28;20047;-61
2023/06/06 00:26:13;;;;;;;11.20;5.38;;;11.30;99.90;;;;;;5120152;28;20051;-60
2023/06/06 00:28:38;;;;;;;11.35;5.28;;;11.30;99.90;;;;;;5120566;28;20049;-59
2023/06/06 00:31:04;;;;;;;14.40;5.30;;;11.30;99.90;;;;;;5119165;28;20054;-60
2023/06/06 00:33:30;;;;;;;12.15;5.75;;;11.30;99.90;;;;;;5120052;28;20046;-61
2023/06/06 00:35:55;;;;;;;11.20;6.18;;;11.20;99.90;;;;;;5119947;28;20858;-60
2023/06/06 00:38:21;;;;;;;10.27;5.57;;;11.20;99.90;;;;;;5118570;28;20811;-60
2023/06/06 00:40:47;;;;;;;9.48;4.75;;;11.20;99.90;;;;;;5119741;28;20271;-61
2023/06/06 00:43:12;;;;;;;11.48;5.55;;;11.20;99.90;;;;;;5119716;28;20048;-60
2023/06/06 00:45:38;;;;;;;11.13;5.05;;;11.30;99.90;;;;;;5120485;28;20040;-60
2023/06/06 00:48:04;;;;;;;11.98;5.20;;;11.30;99.90;;;;;;5119440;28;20036;-60
2023/06/06 00:50:30;;;;;;;13.93;5.45;;;11.30;99.90;;;;;;5119904;28;20039;-60
2023/06/06 00:52:57;;;;;;;12.52;5.70;;;11.20;99.90;;;;;;5119512;28;20032;-60
2023/06/06 00:55:23;;;;;;;11.82;5.47;;;11.20;99.90;;;;;;5119640;28;20106;-60
2023/06/06 00:57:51;;;;;;;13.27;5.85;;;11.30;99.90;;;;;;5119656;28;20122;-60
2023/06/06 01:00:17;;;;;;;10.50;5.60;;;11.30;99.90;;;;;;5119407;28;20046;-60
2023/06/06 01:02:43;;;;;;;11.55;5.57;;;11.20;99.90;;;;;;5119903;28;20043;-60
2023/06/06 01:05:10;;;;;;;10.88;5.70;;;11.30;99.90;;;;;;5119466;28;20406;-60
2023/06/06 01:07:36;;;;;;;10.43;5.45;;;11.30;99.90;;;;;;5119324;28;20051;-60
2023/06/06 01:10:09;;;;;;;11.60;6.00;;;11.20;99.90;;;;;;5119522;28;20047;-60
2023/06/06 01:12:44;;;;;;;13.43;5.45;;;11.20;99.90;;;;;;5119630;28;20076;-60
2023/06/06 01:15:22;;;;;;;13.38;6.40;;;11.30;99.90;;;;;;5119379;28;20530;-60
2023/06/06 01:17:49;;;;;;;14.57;6.78;;;11.20;99.90;;;;;;5119045;28;20476;-60
2023/06/06 01:20:16;;;;;;;11.38;5.63;;;11.20;99.90;;;;;;5119560;28;20039;-59
2023/06/06 01:22:46;;;;;;;12.00;5.70;;;11.20;99.90;;;;;;5119339;28;20058;-60
2023/06/06 01:25:19;;;;;;;12.10;6.00;;;11.10;99.90;;;;;;5119159;28;20115;-60
2023/06/06 01:27:49;;;;;;;13.32;6.32;;;11.00;99.90;;;;;;5118912;28;20050;-60
2023/06/06 01:30:16;;;;;;;12.15;5.95;;;11.20;99.90;;;;;;5119130;28;20055;-61
2023/06/06 01:33:15;;;;;;;12.90;6.22;;;11.10;99.90;;;;;;5119105;28;20133;-60
2023/06/06 01:35:59;;;;;;;12.95;6.10;;;11.00;99.90;;;;;;5119113;28;20059;-58
2023/06/06 01:38:38;;;;;;;16.75;6.38;;;11.10;99.90;;;;;;5118936;28;20151;-60
2023/06/06 01:41:05;;;;;;;12.07;5.60;;;11.10;99.90;;;;;;5119178;28;20043;-60
2023/06/06 01:43:32;;;;;;;13.63;6.20;;;11.10;99.90;;;;;;5118770;28;20728;-60
2023/06/06 01:45:59;;;;;;;13.55;6.10;;;11.00;99.90;;;;;;5119051;28;20107;-60
2023/06/06 01:48:25;;;;;;;14.50;6.32;;;11.10;99.90;;;;;;5119097;28;20045;-61
2023/06/06 01:50:52;;;;;;;12.77;6.72;;;11.00;99.90;;;;;;5118772;28;20044;-60
2023/06/06 01:53:17;;;;;;;11.98;5.55;;;11.00;99.90;;;;;;5118290;28;20216;-60
2023/06/06 01:55:43;;;;;;;16.02;6.30;;;11.00;99.90;;;;;;5118788;28;20046;-60
2023/06/06 01:58:09;;;;;;;11.05;5.43;;;11.10;99.90;;;;;;5118605;28;20043;-60
2023/06/06 02:00:34;;;;;;;12.90;5.93;;;11.00;99.90;;;;;;5117993;28;20051;-60
2023/06/06 02:03:01;;;;;;;13.48;6.28;;;10.90;99.90;;;;;;5118821;27;20040;-60
2023/06/06 02:05:27;;;;;;;13.00;5.82;;;11.10;99.90;;;;;;5116961;28;20092;-60
2023/06/06 02:07:53;;;;;;;12.20;6.30;;;11.10;99.90;;;;;;5117975;28;20079;-60
2023/06/06 02:10:19;;;;;;;16.67;7.43;;;11.00;99.90;;;;;;5118247;28;20073;-59
2023/06/06 02:12:45;;;;;;;12.55;6.35;;;11.10;99.90;;;;;;5118696;28;20517;-61
2023/06/06 02:15:13;;;;;;;12.00;7.10;;;11.10;99.90;;;;;;5117185;28;20043;-60
2023/06/06 02:17:39;;;;;;;14.35;6.63;;;11.10;99.90;;;;;;5117904;28;20409;-60
2023/06/06 02:20:09;;;;;;;12.93;6.07;;;11.20;99.90;;;;;;5117385;28;20047;-60
2023/06/06 02:22:34;;;;;;;13.65;6.03;;;11.20;99.90;;;;;;5117732;28;20044;-61
2023/06/06 02:25:03;;;;;;;11.77;6.38;;;11.30;99.90;;;;;;5116642;28;20095;-59
2023/06/06 02:27:30;;;;;;;12.85;5.13;;;11.20;99.90;;;;;;5118092;28;20054;-61
2023/06/06 02:29:57;;;;;;;11.05;6.05;;;11.40;99.90;;;;;;5118329;28;20054;-60
2023/06/06 02:32:23;;;;;;;13.48;6.38;;;11.40;99.90;;;;;;5117946;28;20099;-60
2023/06/06 02:34:50;;;;;;;14.00;6.40;;;11.30;99.90;;;;;;5118080;28;20093;-60
2023/06/06 02:37:16;;;;;;;12.90;6.57;;;11.30;99.90;;;;;;5118409;28;20050;-61
2023/06/06 02:39:41;;;;;;;14.70;6.07;;;11.30;99.90;;;;;;5117908;28;20087;-60
2023/06/06 02:42:07;;;;;;;14.85;6.25;;;11.30;99.90;;;;;;5118166;28;20043;-61
2023/06/06 02:44:33;;;;;;;15.13;6.18;;;11.40;99.90;;;;;;5118122;28;20085;-61
2023/06/06 02:46:59;;;;;;;17.10;6.40;;;11.30;99.90;;;;;;5118203;28;20067;-61
2023/06/06 02:49:27;;;;;;;15.13;6.07;;;11.30;99.90;;;;;;5116704;28;20118;-61
2023/06/06 02:51:53;;;;;;;12.25;6.20;;;11.20;99.90;;;;;;5117806;28;20217;-61
2023/06/06 02:54:19;;;;;;;10.60;5.53;;;11.20;99.90;;;;;;5122540;28;20121;-62
2023/06/06 02:56:45;;;;;;;14.65;6.45;;;11.30;99.90;;;;;;5121940;28;20039;-61
2023/06/06 02:59:10;;;;;;;13.90;5.97;;;11.30;99.90;;;;;;5122144;28;20039;-60
2023/06/06 03:01:44;;;;;;;13.25;5.93;;;11.30;99.90;;;;;;5121659;28;20100;-60
2023/06/06 03:04:11;;;;;;;12.43;6.20;;;11.30;99.90;;;;;;5121779;28;20048;-61
2023/06/06 03:06:39;;;;;;;14.20;6.80;;;11.30;99.90;;;;;;5122003;28;20036;-60
2023/06/06 03:09:05;;;;;;;12.45;5.50;;;11.30;99.90;;;;;;5121805;28;20040;-60
2023/06/06 03:11:31;;;;;;;12.98;6.50;;;11.20;99.90;;;;;;5122180;28;20077;-60
2023/06/06 03:13:58;;;;;;;12.38;5.88;;;11.10;99.90;;;;;;5121854;28;20039;-60
2023/06/06 03:16:26;;;;;;;10.45;6.07;;;11.20;99.90;;;;;;5122045;28;20047;-60
2023/06/06 03:18:55;;;;;;;11.38;6.18;;;11.10;99.90;;;;;;5121413;28;20052;-61
2023/06/06 03:21:20;;;;;;;12.75;6.07;;;11.10;99.90;;;;;;5121282;28;20048;-61
2023/06/06 03:23:47;;;;;;;12.88;6.47;;;11.00;99.90;;;;;;5121900;28;20070;-61
2023/06/06 03:26:13;;;;;;;11.18;6.05;;;11.10;99.90;;;;;;5121469;28;20283;-60
2023/06/06 03:28:39;;;;;;;13.65;6.18;;;11.10;99.90;;;;;;5121977;28;20458;-60
2023/06/06 03:31:07;;;;;;;12.68;6.75;;;11.10;99.90;;;;;;5120964;28;20122;-61
2023/06/06 03:33:35;;;;;;;14.27;6.35;;;11.10;99.90;;;;;;5121321;28;20509;-61
2023/06/06 03:36:01;;;;;;;14.75;6.80;;;11.10;99.90;;;;;;5121077;28;20086;-61
2023/06/06 03:38:27;;;;;;;12.00;6.28;;;11.10;99.90;;;;;;5121517;28;20116;-61
2023/06/06 03:40:53;;;;;;;12.43;6.70;;;11.00;99.90;;;;;;5121132;27;20039;-61
2023/06/06 03:43:19;;;;;;;15.98;6.97;;;11.10;99.90;;;;;;5120744;28;20043;-61
2023/06/06 03:45:45;;;;;;;16.40;6.57;;;11.00;99.90;;;;;;5121759;28;20093;-62
2023/06/06 03:48:10;;;;;;;13.30;6.45;;;11.10;99.90;;;;;;5121316;28;20396;-61
2023/06/06 03:50:36;;;;;;;15.55;7.05;;;11.10;99.90;;;;;;5121195;28;20042;-61
2023/06/06 03:53:02;;;;;;;13.93;6.20;;;11.10;99.90;;;;;;5120522;28;20028;-60
2023/06/06 03:55:34;;;;;;;12.05;6.32;;;11.10;99.90;;;;;;5120619;28;20036;-60
2023/06/06 03:58:00;;;;;;;13.80;6.57;;;11.00;99.90;;;;;;5120904;28;20063;-61
2023/06/06 04:00:26;;;;;;;12.05;6.45;;;11.20;99.90;;;;;;5120389;28;20048;-59
2023/06/06 04:02:52;;;;;;;13.48;6.50;;;11.10;99.90;;;;;;5120901;28;20050;-60
2023/06/06 04:05:18;;;;;;;12.82;5.82;;;11.10;99.90;;;;;;5119851;28;20048;-61
2023/06/06 04:07:45;;;;;;;12.57;6.05;;;11.20;99.90;;;;;;5120513;28;20051;-61
2023/06/06 04:10:11;;;;;;;13.95;6.72;;;11.30;99.90;;;;;;5119299;28;20059;-61
2023/06/06 04:12:39;;;;;;;15.35;6.60;;;11.30;99.90;;;;;;5120680;28;20095;-61
2023/06/06 04:15:06;;;;;;;12.10;6.43;;;11.20;99.90;;;;;;5120520;28;20046;-61
2023/06/06 04:17:31;;;;;;;14.02;7.15;;;11.30;99.90;;;;;;5120080;28;20672;-61
2023/06/06 04:19:57;;;;;;;13.15;7.47;;;11.50;99.90;;;;;;5121085;27;20046;-61
2023/06/06 04:22:23;;;;;;;12.32;6.35;;;11.30;99.90;;;;;;5120176;28;20043;-61
2023/06/06 04:24:49;;;;;;;11.18;6.32;;;11.50;99.90;;;;;;5120519;28;20035;-61
2023/06/06 04:27:16;;;;;;;12.60;6.18;;;11.50;99.90;;;;;;5120496;27;20407;-61
2023/06/06 04:29:43;;;;;;;15.10;6.35;;;11.50;99.90;;;;;;5120269;28;20035;-61
2023/06/06 04:32:09;;;;;;;11.40;6.20;;;11.50;99.90;;;;;;5120098;28;20044;-61
2023/06/06 04:34:39;;;;;;;11.15;5.78;;;11.60;99.90;;;;;;5119627;28;20519;-61
2023/06/06 04:37:05;;;;;;;14.57;6.60;;;11.70;99.90;;;;;;5120520;28;20044;-61
2023/06/06 04:39:35;;;;;;;13.40;6.28;;;11.60;99.90;;;;;;5118503;28;20103;-61
2023/06/06 04:42:02;;;;;;;17.67;7.15;;;11.60;99.90;;;;;;5119846;28;20044;-61
2023/06/06 04:44:28;;;;;;;16.17;6.40;;;11.70;99.90;;;;;;5119680;28;20039;-61
2023/06/06 04:47:00;;;;;;;18.83;6.72;;;11.90;99.90;;;;;;5120050;28;20043;-61
2023/06/06 04:49:27;;;;;;;16.75;7.03;;;11.90;99.90;;;;;;5119957;28;20031;-61
2023/06/06 04:51:55;;;;;;;13.75;7.05;;;12.00;99.90;;;;;;5119240;27;20035;-60
2023/06/06 04:54:23;;;;;;;15.77;6.53;;;12.10;99.90;;;;;;5119730;28;20044;-60
2023/06/06 04:56:51;;;;;;;17.85;7.25;;;12.10;99.90;;;;;;5118246;28;20059;-60
2023/06/06 04:59:22;;;;;;;13.02;6.50;;;12.20;99.90;;;;;;5119744;28;20043;-61
2023/06/06 05:01:48;;;;;;;18.77;6.22;;;12.20;99.90;;;;;;5119220;28;20038;-61
2023/06/06 05:04:15;;;;;;;10.90;6.22;;;12.30;99.90;;;;;;5119121;28;20053;-61
2023/06/06 05:06:41;;;;;;;13.73;6.28;;;12.50;99.90;;;;;;5119727;28;20352;-61
2023/06/06 05:09:10;;;;;;;15.25;6.60;;;12.60;99.90;;;;;;5118677;28;20059;-61
2023/06/06 05:11:36;;;;;;;15.90;6.57;;;12.70;99.90;;;;;;5119627;28;20043;-62
2023/06/06 05:14:02;;;;;;;16.00;6.63;;;12.70;99.90;;;;;;5115643;28;20043;-61
2023/06/06 05:16:28;;;;;;;13.20;6.35;;;12.70;99.90;;;;;;5115694;28;20070;-61
2023/06/06 05:18:54;;;;;;;15.73;6.40;;;13.00;99.90;;;;;;5115877;28;20486;-61
2023/06/06 05:21:20;;;;;;;14.70;6.50;;;13.00;99.90;;;;;;5115729;28;20081;-61
2023/06/06 05:23:46;;;;;;;12.02;6.47;;;13.10;99.90;;;;;;5115857;28;20048;-61
2023/06/06 05:26:11;;;;;;;14.05;6.38;;;13.00;99.90;;;;;;5113651;28;20537;-60
2023/06/06 05:28:38;;;;;;;14.48;6.32;;;13.30;99.90;;;;;;5116123;28;20040;-61
2023/06/06 05:31:07;;;;;;;13.98;6.28;;;13.20;99.90;;;;;;5114100;28;20134;-61
2023/06/06 05:33:42;;;;;;;19.63;6.50;;;13.30;99.90;;;;;;5114263;28;20056;-61
2023/06/06 05:36:08;;;;;;;14.93;5.88;;;13.40;99.90;;;;;;5115412;28;20067;-62
2023/06/06 05:38:34;;;;;;;11.88;5.45;;;13.40;99.90;;;;;;5114959;28;20043;-62
2023/06/06 05:41:00;;;;;;;11.93;5.35;;;13.30;99.90;;;;;;5115921;28;20054;-62
2023/06/06 05:43:26;;;;;;;12.45;4.88;;;13.50;99.90;;;;;;5115166;28;20046;-61
2023/06/06 05:45:51;;;;;;;12.15;5.30;;;13.30;99.90;;;;;;5115435;28;20043;-60
2023/06/06 05:48:17;;;;;;;15.15;5.30;;;13.50;99.90;;;;;;5114110;28;20083;-61
2023/06/06 05:50:43;;;;;;;13.35;5.07;;;13.70;99.90;;;;;;5114169;28;20043;-61
2023/06/06 05:53:09;;;;;;;12.13;5.22;;;13.60;99.90;;;;;;5114593;28;20051;-62
2023/06/06 05:55:36;;;;;;;9.20;4.70;;;13.60;99.90;;;;;;5115064;28;20061;-61
2023/06/06 05:58:06;;;;;;;9.20;4.15;;;13.80;99.90;;;;;;5114973;28;20155;-62
2023/06/06 06:00:33;;;;;;;10.57;4.05;;;13.60;99.90;;;;;;5114126;28;20415;-61
2023/06/06 06:03:00;;;;;;;12.52;4.53;;;13.70;99.90;;;;;;5115442;28;20571;-61
2023/06/06 06:05:28;;;;;;;11.80;4.60;;;13.60;99.90;;;;;;5115019;28;20032;-62
2023/06/06 06:08:01;;;;;;;10.30;4.50;;;13.50;99.90;;;;;;5114776;28;20055;-61
2023/06/06 06:10:31;;;;;;;12.30;5.00;;;13.40;99.90;;;;;;5115140;28;20049;-62
2023/06/06 06:12:58;;;;;;;9.70;3.85;;;13.60;99.90;;;;;;5114719;28;20052;-61
2023/06/06 06:15:24;;;;;;;14.50;4.40;;;13.70;99.90;;;;;;5115369;28;20730;-63
2023/06/06 06:17:50;;;;;;;12.35;4.13;;;13.80;99.90;;;;;;5114680;28;20095;-61
2023/06/06 06:20:17;;;;;;;11.68;4.80;;;13.80;99.90;;;;;;5114956;28;20047;-61
2023/06/06 06:22:43;;;;;;;12.70;4.00;;;14.10;99.90;;;;;;5114767;28;20102;-61
2023/06/06 06:25:13;;;;;;;9.65;3.80;;;14.30;99.90;;;;;;5114204;28;20040;-61
2023/06/06 06:27:43;;;;;;;11.88;4.28;;;14.40;99.90;;;;;;5114078;28;20051;-61
2023/06/06 06:30:09;;;;;;;9.25;3.88;;;14.30;99.90;;;;;;5114690;28;20059;-61
2023/06/06 06:32:37;;;;;;;10.52;4.38;;;14.30;99.90;;;;;;5114946;28;20048;-61
2023/06/06 06:35:04;;;;;;;9.88;4.10;;;14.40;99.90;;;;;;5113443;28;20047;-61
2023/06/06 06:37:31;;;;;;;12.13;4.55;;;14.40;99.90;;;;;;5114688;28;20101;-62
2023/06/06 06:40:00;;;;;;;10.55;3.83;;;14.40;99.90;;;;;;5113923;28;20050;-60
2023/06/06 06:42:26;;;;;;;10.45;3.95;;;14.40;99.90;;;;;;5114308;28;20083;-61
2023/06/06 06:44:53;;;;;;;10.18;3.53;;;14.50;99.90;;;;;;5114811;28;20075;-61
2023/06/06 06:47:19;;;;;;;15.45;4.22;;;14.60;99.90;;;;;;5114144;28;20071;-62
2023/06/06 06:49:45;;;;;;;11.15;4.50;;;14.70;99.90;;;;;;5114397;28;20050;-61
2023/06/06 06:52:11;;;;;;;10.98;3.75;;;14.80;99.90;;;;;;5114424;28;20047;-61
2023/06/06 06:54:54;;;;;;;10.40;4.03;;;14.70;99.90;;;;;;5114533;28;20039;-61
2023/06/06 06:57:26;;;;;;;13.40;4.47;;;14.80;99.90;;;;;;5114391;28;20051;-62
2023/06/06 06:59:59;;;;;;;13.57;4.88;;;14.90;99.90;;;;;;5114608;28;20060;-61
2023/06/06 07:02:30;;;;;;;10.38;4.50;;;15.10;99.90;;;;;;5112982;28;20047;-62
2023/06/06 07:05:01;;;;;;;11.75;3.47;;;15.20;99.90;;;;;;5114258;28;20096;-61
2023/06/06 07:07:26;;;;;;;10.70;4.00;;;15.40;99.90;;;;;;5114656;28;20059;-62
2023/06/06 07:09:53;;;;;;;12.23;3.67;;;15.50;99.90;;;;;;5114528;28;20060;-61
2023/06/06 07:12:20;;;;;;;13.63;4.57;;;15.60;99.90;;;;;;5114391;28;20044;-61
2023/06/06 07:14:46;;;;;;;10.63;4.05;;;15.60;99.90;;;;;;5114126;28;20054;-61
2023/06/06 07:17:13;;;;;;;11.57;3.88;;;15.90;99.90;;;;;;5114461;28;20146;-61
2023/06/06 07:19:39;;;;;;;11.43;4.25;;;15.70;99.90;;;;;;5114986;28;20058;-61
2023/06/06 07:22:05;;;;;;;8.95;4.15;;;15.60;99.90;;;;;;5114131;28;20130;-62
2023/06/06 07:24:31;;;;;;;9.95;4.18;;;15.50;99.90;;;;;;5096399;28;20649;-62
2023/06/06 07:26:58;;;;;;;9.05;3.97;;;15.80;99.90;;;;;;5114560;28;20083;-61
2023/06/06 07:29:24;;;;;;;10.43;4.63;;;15.90;99.90;;;;;;5114314;28;20088;-61
2023/06/06 07:31:50;;;;;;;10.48;4.70;;;15.80;99.90;;;;;;5113977;28;20056;-62
2023/06/06 07:34:16;;;;;;;8.43;3.97;;;16.00;99.90;;;;;;5114278;28;20475;-61
2023/06/06 07:36:42;;;;;;;13.77;5.00;;;16.10;99.90;;;;;;5115083;28;20071;-61
2023/06/06 07:39:08;;;;;;;13.77;5.53;;;15.80;99.90;;;;;;5114534;28;20042;-61
2023/06/06 07:41:34;;;;;;;8.68;4.88;;;15.60;99.90;;;;;;5117868;28;20036;-61
2023/06/06 07:44:01;;;;;;;11.35;4.63;;;15.70;99.90;;;;;;5117757;28;20071;-61
2023/06/06 07:46:27;;;;;;;9.57;4.70;;;15.90;99.90;;;;;;5117657;28;20065;-61
2023/06/06 07:48:53;;;;;;;11.20;4.70;;;15.80;99.90;;;;;;5116723;28;20135;-61
2023/06/06 07:51:19;;;;;;;10.60;4.95;;;16.00;99.90;;;;;;5117270;28;20208;-61
2023/06/06 07:53:45;;;;;;;11.15;5.03;;;16.10;99.90;;;;;;5117101;28;20510;-61
2023/06/06 07:56:14;;;;;;;10.77;4.43;;;16.20;99.90;;;;;;5116795;28;20125;-61
2023/06/06 07:58:51;;;;;;;10.50;4.50;;;16.20;99.90;;;;;;5117467;28;20028;-61
2023/06/06 08:01:20;;;;;;;9.65;4.53;;;16.10;99.90;;;;;;5116835;28;20088;-61
2023/06/06 08:03:50;;;;;;;10.35;4.40;;;16.00;99.90;;;;;;5116134;28;20044;-61
2023/06/06 08:06:19;;;;;;;10.90;4.70;;;16.10;99.90;;;;;;5117180;28;20043;-61
2023/06/06 08:08:46;;;;;;;11.82;4.25;;;16.10;99.90;;;;;;5116719;27;20114;-57
2023/06/06 08:11:15;;;;;;;12.93;4.50;;;15.80;99.90;;;;;;5117245;28;20051;-61
2023/06/06 08:13:41;;;;;;;10.07;4.50;;;15.90;99.90;;;;;;5117064;28;20049;-60
2023/06/06 08:16:08;;;;;;;12.43;4.47;;;16.00;99.90;;;;;;5118770;28;20039;-61
2023/06/06 08:18:34;;;;;;;11.23;4.80;;;16.20;99.90;;;;;;5119719;28;20139;-62
2023/06/06 08:20:59;;;;;;;11.05;4.88;;;16.30;99.90;;;;;;5120053;28;20127;-61
2023/06/06 08:23:25;;;;;;;13.00;4.90;;;16.60;99.90;;;;;;5119869;28;20039;-61
2023/06/06 08:25:55;;;;;;;9.88;4.25;;;16.60;99.90;;;;;;5120149;28;20081;-61
2023/06/06 08:28:24;;;;;;;12.77;4.90;;;16.60;99.90;;;;;;5120669;28;20043;-61
2023/06/06 08:30:51;;;;;;;12.02;5.47;;;16.10;99.90;;;;;;5119956;28;20151;-61
2023/06/06 08:33:18;;;;;;;11.27;5.13;;;16.10;99.90;;;;;;5120335;28;20043;-61
2023/06/06 08:35:44;;;;;;;11.30;4.97;;;16.10;99.90;;;;;;5120226;28;20087;-61
2023/06/06 08:38:11;;;;;;;11.95;4.35;;;16.10;99.90;;;;;;5120334;28;20043;-60
2023/06/06 08:40:37;;;;;;;13.05;5.10;;;16.30;99.90;;;;;;5120310;28;20036;-61
2023/06/06 08:43:05;;;;;;;12.18;4.78;;;16.30;99.90;;;;;;5119976;28;20061;-61
2023/06/06 08:45:32;;;;;;;10.00;4.93;;;16.00;99.90;;;;;;5120443;28;20043;-61
2023/06/06 08:47:58;;;;;;;12.18;5.30;;;16.20;99.90;;;;;;5119656;27;20040;-61
2023/06/06 08:50:26;;;;;;;12.15;4.97;;;16.10;99.90;;;;;;5119087;27;20043;-61
2023/06/06 08:52:52;;;;;;;9.65;4.68;;;16.20;99.90;;;;;;5119839;27;20046;-61
2023/06/06 08:55:19;;;;;;;10.55;4.40;;;15.90;99.90;;;;;;5119823;28;20116;-60
2023/06/06 08:57:47;;;;;;;10.18;4.55;;;16.10;99.90;;;;;;5119551;28;20050;-60
2023/06/06 09:00:21;;;;;;;10.25;4.78;;;16.20;99.90;;;;;;5119575;28;20160;-60
2023/06/06 09:02:51;;;;;;;16.75;5.15;;;16.20;99.90;;;;;;5119575;28;20051;-61
2023/06/06 09:05:19;;;;;;;14.20;4.95;;;16.40;99.90;;;;;;5119892;28;20043;-61
2023/06/06 09:07:52;;;;;;;10.52;4.28;;;16.60;99.90;;;;;;5117828;28;20040;-61
2023/06/06 09:10:19;;;;;;;11.65;4.25;;;16.60;99.90;;;;;;5118923;28;20091;-62
2023/06/06 09:12:46;;;;;;;9.50;4.50;;;16.40;99.90;;;;;;5119265;28;20040;-61
2023/06/06 09:15:13;;;;;;;10.20;4.60;;;16.40;99.90;;;;;;5119623;28;20073;-61
2023/06/06 09:17:40;;;;;;;8.73;4.47;;;16.50;99.90;;;;;;5118951;27;20135;-61
2023/06/06 09:20:11;;;;;;;9.93;5.00;;;16.60;99.90;;;;;;5119595;28;20040;-61
2023/06/06 09:22:46;;;;;;;12.32;5.43;;;16.60;99.90;;;;;;5119109;27;20040;-62
2023/06/06 09:25:21;;;;;;;11.95;5.07;;;16.50;99.90;;;;;;5118774;28;20043;-61
2023/06/06 09:27:52;;;;;;;12.68;5.28;;;16.80;99.90;;;;;;5118870;28;20047;-61
2023/06/06 09:30:26;;;;;;;10.50;5.00;;;16.60;99.90;;;;;;5118576;28;20081;-61
2023/06/06 09:33:03;;;;;;;10.27;5.00;;;16.70;99.90;;;;;;5119205;28;20054;-60
2023/06/06 09:35:43;;;;;;;11.95;5.15;;;16.90;99.90;;;;;;5118404;27;20040;-61
2023/06/06 09:38:15;;;;;;;11.73;5.45;;;17.00;99.90;;;;;;5118813;28;20062;-61
2023/06/06 09:40:45;;;;;;;10.05;5.25;;;17.20;99.90;;;;;;5117766;28;20047;-62
2023/06/06 09:43:11;;;;;;;10.48;4.93;;;17.40;99.90;;;;;;5117772;28;20063;-61
2023/06/06 09:45:51;;;;;;;12.05;5.35;;;17.40;99.90;;;;;;5119263;28;20032;-61
2023/06/06 09:48:25;;;;;;;11.55;5.20;;;17.30;99.90;;;;;;5118979;28;20043;-61
2023/06/06 09:50:52;;;;;;;11.85;5.68;;;17.20;99.90;;;;;;5118941;28;20047;-61
2023/06/06 09:53:18;;;;;;;10.93;5.50;;;17.20;99.90;;;;;;5118732;28;20399;-61
2023/06/06 09:55:44;;;;;;;11.73;5.55;;;17.30;99.90;;;;;;5118655;28;20069;-61
2023/06/06 09:58:17;;;;;;;12.07;6.22;;;17.20;99.90;;;;;;5118009;28;20046;-61
2023/06/06 10:00:46;;;;;;;15.93;6.20;;;17.20;99.90;;;;;;5118425;28;20096;-61
2023/06/06 10:03:19;;;;;;;10.40;4.80;;;16.90;99.90;;;;;;5117544;28;20051;-60
2023/06/06 10:05:49;;;;;;;11.52;5.97;;;17.30;99.90;;;;;;5118356;28;20533;-60
2023/06/06 10:08:17;;;;;;;11.50;5.95;;;17.30;99.90;;;;;;5118363;28;20126;-61
2023/06/06 10:10:45;;;;;;;12.38;5.40;;;17.40;99.90;;;;;;5118364;28;20051;-61
2023/06/06 10:13:13;;;;;;;13.32;5.22;;;17.30;99.90;;;;;;5117877;28;20115;-61
2023/06/06 10:15:39;;;;;;;11.07;5.72;;;17.30;99.90;;;;;;5118673;28;20054;-61
2023/06/06 10:18:05;;;;;;;13.65;5.13;;;17.20;99.90;;;;;;5117970;28;20043;-61
2023/06/06 10:20:32;;;;;;;12.32;5.82;;;17.10;99.90;;;;;;5118226;28;20047;-61
2023/06/06 10:23:01;;;;;;;15.32;6.20;;;17.00;99.90;;;;;;5116942;28;20028;-61
2023/06/06 10:25:27;;;;;;;14.98;5.97;;;17.10;99.90;;;;;;5118169;28;20040;-61
2023/06/06 10:28:21;;;;;;;12.80;6.35;;;17.30;99.90;;;;;;5118384;28;20031;-62
2023/06/06 10:31:02;;;;;;;12.38;5.78;;;17.30;99.90;;;;;;5118576;28;20046;-61
2023/06/06 10:33:45;;;;;;;11.18;5.80;;;17.40;99.90;;;;;;5117810;28;20028;-60
2023/06/06 10:36:18;;;;;;;13.68;6.40;;;17.60;99.90;;;;;;5118235;28;20066;-61
2023/06/06 10:39:22;;;;;;;14.57;6.97;;;17.40;99.90;;;;;;5118041;28;20467;-61
2023/06/06 10:41:52;;;;;;;11.23;5.72;;;17.70;99.90;;;;;;5117818;28;20078;-60
2023/06/06 10:44:53;;;;;;;15.00;5.93;;;17.60;99.90;;;;;;5117902;28;20509;-61
2023/06/06 10:47:27;;;;;;;12.95;5.50;;;17.60;99.90;;;;;;5116827;28;20066;-61
2023/06/06 10:50:08;;;;;;;12.25;5.20;;;17.60;99.90;;;;;;5118527;28;20043;-61
2023/06/06 10:52:54;;;;;;;14.60;5.73;;;17.80;99.90;;;;;;5118056;28;20062;-61
2023/06/06 10:55:20;;;;;;;13.50;5.90;;;17.80;99.90;;;;;;5117896;28;20139;-61
2023/06/06 10:58:04;;;;;;;13.23;5.15;;;17.70;99.90;;;;;;5117398;28;20590;-60
2023/06/06 11:00:40;;;;;;;13.52;5.20;;;17.60;99.90;;;;;;5097344;28;20574;-61
2023/06/06 11:03:07;;;;;;;10.93;4.78;;;17.70;99.90;;;;;;5097413;28;20051;-61
2023/06/06 11:05:33;;;;;;;12.43;4.70;;;17.70;99.90;;;;;;5095831;28;20496;-61
2023/06/06 11:08:00;;;;;;;12.95;5.43;;;17.60;99.90;;;;;;5097660;28;20554;-60
2023/06/06 11:10:26;;;;;;;13.02;4.75;;;17.60;99.90;;;;;;5097278;28;20108;-60
2023/06/06 11:12:53;;;;;;;15.85;5.47;;;17.50;99.90;;;;;;5097422;28;20040;-61
2023/06/06 11:15:32;;;;;;;12.32;5.60;;;17.60;99.90;;;;;;5101853;28;20040;-61
2023/06/06 11:18:03;;;;;;;11.15;4.82;;;17.70;99.90;;;;;;5101023;28;20044;-60
2023/06/06 11:20:37;;;;;;;12.15;5.57;;;17.70;99.90;;;;;;5101467;28;20036;-61
2023/06/06 11:23:03;;;;;;;11.80;5.00;;;18.00;99.90;;;;;;5100831;28;20048;-60
2023/06/06 11:25:34;;;;;;;13.73;5.22;;;18.00;99.90;;;;;;5101292;28;20064;-61
2023/06/06 11:28:01;;;;;;;12.23;5.07;;;17.90;99.90;;;;;;5101577;28;20506;-60
2023/06/06 11:30:33;;;;;;;12.52;5.30;;;17.90;99.90;;;;;;5100573;28;20047;-61
2023/06/06 11:33:00;;;;;;;10.25;5.18;;;18.20;99.90;;;;;;5101113;28;20418;-61
2023/06/06 11:35:32;;;;;;;11.52;5.05;;;18.20;99.90;;;;;;5101123;28;20036;-60
2023/06/06 11:37:58;;;;;;;14.13;6.05;;;18.30;99.90;;;;;;5101213;28;20071;-61
2023/06/06 11:40:28;;;;;;;13.25;5.30;;;18.20;99.90;;;;;;5100695;28;20040;-61
2023/06/06 11:42:54;;;;;;;11.95;5.45;;;18.00;99.90;;;;;;5100594;28;20121;-60
2023/06/06 11:45:21;;;;;;;11.90;5.07;;;18.10;99.90;;;;;;5100337;28;20540;-62
2023/06/06 11:47:48;;;;;;;14.30;5.35;;;18.20;99.90;;;;;;5100052;28;20051;-61
2023/06/06 11:50:26;;;;;;;11.98;5.40;;;17.80;99.90;;;;;;5099312;28;20055;-61
2023/06/06 11:52:52;;;;;;;12.43;5.43;;;18.00;99.90;;;;;;5100371;28;20044;-61
2023/06/06 11:55:18;;;;;;;10.23;5.05;;;18.00;99.90;;;;;;5100651;28;20436;-61
2023/06/06 11:57:44;;;;;;;11.57;4.88;;;18.10;99.90;;;;;;5100381;28;20127;-61
2023/06/06 12:00:14;;;;;;;14.90;5.53;;;18.10;99.90;;;;;;5100414;28;20055;-61
2023/06/06 12:02:40;;;;;;;17.50;6.13;;;18.10;99.90;;;;;;5100033;28;20059;-61
2023/06/06 12:05:18;;;;;;;11.25;4.97;;;18.10;99.90;;;;;;5104151;28;20042;-61
2023/06/06 12:07:44;;;;;;;14.30;5.50;;;18.10;99.90;;;;;;5119083;28;20028;-61
2023/06/06 12:10:10;;;;;;;13.98;5.03;;;18.10;99.90;;;;;;5119668;28;20032;-61
2023/06/06 12:12:45;;;;;;;11.98;4.75;;;18.40;99.90;;;;;;5119639;28;20050;-61
2023/06/06 12:15:10;;;;;;;11.43;4.70;;;18.50;99.90;;;;;;5117613;28;20044;-61
2023/06/06 12:17:36;;;;;;;11.48;4.40;;;18.10;99.90;;;;;;5119786;28;20112;-61
2023/06/06 12:20:05;;;;;;;12.10;4.88;;;18.20;99.90;;;;;;5120800;28;20047;-61
2023/06/06 12:22:33;;;;;;;9.70;4.20;;;18.30;99.90;;;;;;5120180;28;20072;-60
2023/06/06 12:24:59;;;;;;;12.93;4.57;;;18.40;99.90;;;;;;5119572;28;20433;-61
2023/06/06 12:27:27;;;;;;;11.88;4.10;;;18.20;99.90;;;;;;5120225;28;20039;-60
2023/06/06 12:29:54;;;;;;;12.05;4.43;;;18.30;99.90;;;;;;5118909;28;20090;-60
2023/06/06 12:32:26;;;;;;;11.10;4.38;;;18.40;99.90;;;;;;5120535;28;20040;-60
2023/06/06 12:35:01;;;;;;;11.82;4.70;;;18.30;99.90;;;;;;5119931;28;20095;-60
2023/06/06 12:37:40;;;;;;;11.95;4.45;;;18.20;99.90;;;;;;5119806;28;20044;-60
2023/06/06 12:40:15;;;;;;;13.80;4.25;;;18.00;99.90;;;;;;5119959;28;20043;-60
2023/06/06 12:42:42;;;;;;;13.45;5.10;;;18.20;99.90;;;;;;5120155;28;20048;-60
2023/06/06 12:45:08;;;;;;;10.10;4.43;;;18.20;99.90;;;;;;5120357;28;20110;-61